sensor_id;sensor_type;location;lat;lon;timestamp;pressure;altitude;pressure_sealevel;temperature;humidity
49515;BME280;35415;47.870;16.058;2023-02-04T00:00:02;97295.06;;;5.85;80.43
49515;BME280;35415;47.870;16.058;2023-02-04T00:02:31;97302.16;;;5.91;80.15
49515;BME280;35415;47.870;16.058;2023-02-04T00:04:58;97284.78;;;5.65;79.54
49515;BME280;35415;47.870;16.058;2023-02-04T00:07:25;97270.97;;;5.68;79.60
49515;BME280;35415;47.870;16.058;2023-02-04T00:09:55;97279.41;;;5.77;78.69
49515;BME280;35415;47.870;16.058;2023-02-04T00:12:22;97291.47;;;5.80;78.35
49515;BME280;35415;47.870;16.058;2023-02-04T00:14:49;97330.00;;;5.84;77.24
49515;BME280;35415;47.870;16.058;2023-02-04T00:17:18;97320.25;;;5.89;77.85
49515;BME280;35415;47.870;16.058;2023-02-04T00:19:46;97271.00;;;5.57;77.76
49515;BME280;35415;47.870;16.058;2023-02-04T00:22:14;97311.78;;;5.92;77.21
49515;BME280;35415;47.870;16.058;2023-02-04T00:24:42;97304.69;;;5.86;77.56
49515;BME280;35415;47.870;16.058;2023-02-04T00:27:15;97281.63;;;5.68;76.78
49515;BME280;35415;47.870;16.058;2023-02-04T00:29:42;97288.94;;;5.73;77.01
49515;BME280;35415;47.870;16.058;2023-02-04T00:32:09;97269.97;;;5.58;76.97
49515;BME280;35415;47.870;16.058;2023-02-04T00:34:38;97309.03;;;5.76;77.63
49515;BME280;35415;47.870;16.058;2023-02-04T00:37:05;97276.28;;;5.80;76.15
49515;BME280;35415;47.870;16.058;2023-02-04T00:39:32;97309.13;;;5.81;76.46
49515;BME280;35415;47.870;16.058;2023-02-04T00:41:59;97282.69;;;5.67;75.89
49515;BME280;35415;47.870;16.058;2023-02-04T00:44:26;97276.13;;;5.47;75.50
49515;BME280;35415;47.870;16.058;2023-02-04T00:46:53;97261.00;;;5.64;75.16
49515;BME280;35415;47.870;16.058;2023-02-04T00:49:20;97289.75;;;5.73;75.55
49515;BME280;35415;47.870;16.058;2023-02-04T00:51:49;97233.53;;;5.52;75.38
49515;BME280;35415;47.870;16.058;2023-02-04T00:54:18;97308.16;;;5.87;76.12
49515;BME280;35415;47.870;16.058;2023-02-04T00:56:45;97305.66;;;5.92;76.05
49515;BME280;35415;47.870;16.058;2023-02-04T00:59:12;97254.53;;;5.60;76.25
49515;BME280;35415;47.870;16.058;2023-02-04T01:01:40;97266.25;;;5.59;77.41
49515;BME280;35415;47.870;16.058;2023-02-04T01:04:07;97315.75;;;5.90;77.45
49515;BME280;35415;47.870;16.058;2023-02-04T01:06:34;97310.63;;;5.77;78.75
49515;BME280;35415;47.870;16.058;2023-02-04T01:09:03;97292.53;;;5.79;79.59
49515;BME280;35415;47.870;16.058;2023-02-04T01:11:31;97242.16;;;5.42;79.59
49515;BME280;35415;47.870;16.058;2023-02-04T01:13:58;97256.63;;;5.34;80.42
49515;BME280;35415;47.870;16.058;2023-02-04T01:16:25;97259.06;;;5.36;80.70
49515;BME280;35415;47.870;16.058;2023-02-04T01:18:52;97297.13;;;5.55;81.88
49515;BME280;35415;47.870;16.058;2023-02-04T01:21:21;97301.41;;;5.56;81.75
49515;BME280;35415;47.870;16.058;2023-02-04T01:23:48;97297.94;;;5.43;81.34
49515;BME280;35415;47.870;16.058;2023-02-04T01:26:18;97276.03;;;5.06;82.49
49515;BME280;35415;47.870;16.058;2023-02-04T01:28:45;97229.78;;;5.01;81.92
49515;BME280;35415;47.870;16.058;2023-02-04T01:31:12;97259.78;;;5.20;81.94
49515;BME280;35415;47.870;16.058;2023-02-04T01:33:40;97215.91;;;4.87;82.51
49515;BME280;35415;47.870;16.058;2023-02-04T01:36:08;97276.38;;;5.10;82.45
49515;BME280;35415;47.870;16.058;2023-02-04T01:38:36;97283.44;;;5.16;82.78
49515;BME280;35415;47.870;16.058;2023-02-04T01:41:04;97254.09;;;5.16;83.45
49515;BME280;35415;47.870;16.058;2023-02-04T01:43:34;97280.53;;;5.18;84.07
49515;BME280;35415;47.870;16.058;2023-02-04T01:46:01;97258.41;;;5.05;84.26
49515;BME280;35415;47.870;16.058;2023-02-04T01:48:29;97270.13;;;5.04;84.90
49515;BME280;35415;47.870;16.058;2023-02-04T01:51:04;97272.00;;;5.04;84.58
49515;BME280;35415;47.870;16.058;2023-02-04T01:53:32;97255.97;;;4.92;84.74
49515;BME280;35415;47.870;16.058;2023-02-04T01:56:01;97251.81;;;4.96;84.84
49515;BME280;35415;47.870;16.058;2023-02-04T01:58:29;97262.69;;;4.95;85.41
49515;BME280;35415;47.870;16.058;2023-02-04T02:00:59;97238.13;;;4.81;86.58
49515;BME280;35415;47.870;16.058;2023-02-04T02:03:27;97234.63;;;4.69;87.24
49515;BME280;35415;47.870;16.058;2023-02-04T02:05:54;97269.63;;;4.84;86.78
49515;BME280;35415;47.870;16.058;2023-02-04T02:08:21;97224.22;;;4.67;86.67
49515;BME280;35415;47.870;16.058;2023-02-04T02:10:49;97235.56;;;4.63;86.17
49515;BME280;35415;47.870;16.058;2023-02-04T02:13:18;97236.16;;;4.76;86.39
49515;BME280;35415;47.870;16.058;2023-02-04T02:15:46;97259.56;;;4.86;87.26
49515;BME280;35415;47.870;16.058;2023-02-04T02:18:15;97254.59;;;4.90;87.35
49515;BME280;35415;47.870;16.058;2023-02-04T02:20:42;97217.25;;;4.66;87.48
49515;BME280;35415;47.870;16.058;2023-02-04T02:23:15;97237.66;;;4.72;87.44
49515;BME280;35415;47.870;16.058;2023-02-04T02:25:48;97258.66;;;4.92;87.92
49515;BME280;35415;47.870;16.058;2023-02-04T02:28:20;97255.75;;;4.94;87.71
49515;BME280;35415;47.870;16.058;2023-02-04T02:30:49;97263.97;;;4.92;87.35
49515;BME280;35415;47.870;16.058;2023-02-04T02:33:18;97259.47;;;4.93;88.05
49515;BME280;35415;47.870;16.058;2023-02-04T02:35:48;97269.06;;;4.94;87.78
49515;BME280;35415;47.870;16.058;2023-02-04T02:38:17;97280.53;;;4.94;87.96
49515;BME280;35415;47.870;16.058;2023-02-04T02:40:45;97253.06;;;4.82;87.47
49515;BME280;35415;47.870;16.058;2023-02-04T02:43:16;97288.53;;;4.94;87.89
49515;BME280;35415;47.870;16.058;2023-02-04T02:45:46;97288.19;;;4.91;88.81
49515;BME280;35415;47.870;16.058;2023-02-04T02:48:13;97282.63;;;4.92;88.21
49515;BME280;35415;47.870;16.058;2023-02-04T02:50:41;97281.00;;;4.91;88.52
49515;BME280;35415;47.870;16.058;2023-02-04T02:53:11;97274.63;;;4.80;88.66
49515;BME280;35415;47.870;16.058;2023-02-04T02:55:39;97282.38;;;4.82;88.30
49515;BME280;35415;47.870;16.058;2023-02-04T02:58:11;97250.50;;;4.64;88.46
49515;BME280;35415;47.870;16.058;2023-02-04T03:00:43;97273.34;;;4.71;88.60
49515;BME280;35415;47.870;16.058;2023-02-04T03:03:12;97277.16;;;4.75;89.17
49515;BME280;35415;47.870;16.058;2023-02-04T03:05:44;97269.88;;;4.71;89.78
49515;BME280;35415;47.870;16.058;2023-02-04T03:08:13;97231.59;;;4.42;90.84
49515;BME280;35415;47.870;16.058;2023-02-04T03:10:42;97240.63;;;4.52;90.87
49515;BME280;35415;47.870;16.058;2023-02-04T03:13:11;97244.22;;;4.46;90.68
49515;BME280;35415;47.870;16.058;2023-02-04T03:15:42;97264.41;;;4.66;91.68
49515;BME280;35415;47.870;16.058;2023-02-04T03:18:12;97268.22;;;4.58;91.42
49515;BME280;35415;47.870;16.058;2023-02-04T03:20:41;97271.13;;;4.57;91.59
49515;BME280;35415;47.870;16.058;2023-02-04T03:23:09;97236.97;;;4.53;91.55
49515;BME280;35415;47.870;16.058;2023-02-04T03:25:36;97248.03;;;4.39;91.58
49515;BME280;35415;47.870;16.058;2023-02-04T03:28:04;97257.72;;;4.33;91.04
49515;BME280;35415;47.870;16.058;2023-02-04T03:30:31;97273.75;;;4.45;90.38
49515;BME280;35415;47.870;16.058;2023-02-04T03:33:00;97281.53;;;4.58;90.65
49515;BME280;35415;47.870;16.058;2023-02-04T03:35:27;97260.31;;;4.51;90.71
49515;BME280;35415;47.870;16.058;2023-02-04T03:37:54;97252.41;;;4.33;90.93
49515;BME280;35415;47.870;16.058;2023-02-04T03:40:22;97268.81;;;4.60;91.16
49515;BME280;35415;47.870;16.058;2023-02-04T03:42:49;97236.91;;;4.30;90.85
49515;BME280;35415;47.870;16.058;2023-02-04T03:45:17;97194.53;;;4.29;90.99
49515;BME280;35415;47.870;16.058;2023-02-04T03:47:45;97230.66;;;4.36;90.64
49515;BME280;35415;47.870;16.058;2023-02-04T03:50:14;97285.25;;;4.57;91.05
49515;BME280;35415;47.870;16.058;2023-02-04T03:52:41;97274.69;;;4.50;90.90
49515;BME280;35415;47.870;16.058;2023-02-04T03:55:09;97273.31;;;4.60;90.88
49515;BME280;35415;47.870;16.058;2023-02-04T03:57:36;97278.53;;;4.55;90.16
49515;BME280;35415;47.870;16.058;2023-02-04T04:00:04;97263.25;;;4.62;89.71
49515;BME280;35415;47.870;16.058;2023-02-04T04:02:32;97301.59;;;4.61;89.80
49515;BME280;35415;47.870;16.058;2023-02-04T04:04:59;97277.25;;;4.57;89.05
49515;BME280;35415;47.870;16.058;2023-02-04T04:07:28;97280.38;;;4.66;90.61
49515;BME280;35415;47.870;16.058;2023-02-04T04:09:55;97304.94;;;4.68;89.79
49515;BME280;35415;47.870;16.058;2023-02-04T04:12:22;97267.22;;;4.71;88.61
49515;BME280;35415;47.870;16.058;2023-02-04T04:14:49;97260.47;;;4.68;89.13
49515;BME280;35415;47.870;16.058;2023-02-04T04:17:16;97250.50;;;4.64;88.17
49515;BME280;35415;47.870;16.058;2023-02-04T04:19:43;97268.03;;;4.71;88.93
49515;BME280;35415;47.870;16.058;2023-02-04T04:22:10;97253.63;;;4.61;87.14
49515;BME280;35415;47.870;16.058;2023-02-04T04:24:39;97255.03;;;4.75;86.22
49515;BME280;35415;47.870;16.058;2023-02-04T04:27:07;97226.66;;;4.57;87.17
49515;BME280;35415;47.870;16.058;2023-02-04T04:29:34;97285.97;;;4.76;86.86
49515;BME280;35415;47.870;16.058;2023-02-04T04:32:04;97267.09;;;4.77;86.57
49515;BME280;35415;47.870;16.058;2023-02-04T04:34:34;97214.31;;;4.33;87.57
49515;BME280;35415;47.870;16.058;2023-02-04T04:37:01;97310.53;;;4.78;87.64
49515;BME280;35415;47.870;16.058;2023-02-04T04:39:28;97315.63;;;4.79;87.88
49515;BME280;35415;47.870;16.058;2023-02-04T04:41:58;97281.63;;;4.51;88.63
49515;BME280;35415;47.870;16.058;2023-02-04T04:44:25;97287.91;;;4.57;90.07
49515;BME280;35415;47.870;16.058;2023-02-04T04:46:52;97329.50;;;4.70;90.08
49515;BME280;35415;47.870;16.058;2023-02-04T04:49:19;97332.00;;;4.53;90.70
49515;BME280;35415;47.870;16.058;2023-02-04T04:51:46;97336.56;;;4.64;91.55
49515;BME280;35415;47.870;16.058;2023-02-04T04:54:15;97349.09;;;4.34;92.92
49515;BME280;35415;47.870;16.058;2023-02-04T04:56:42;97379.78;;;4.36;93.29
49515;BME280;35415;47.870;16.058;2023-02-04T04:59:14;97373.38;;;4.26;93.48
49515;BME280;35415;47.870;16.058;2023-02-04T05:01:41;97391.13;;;3.95;93.87
49515;BME280;35415;47.870;16.058;2023-02-04T05:04:08;97437.34;;;4.19;94.73
49515;BME280;35415;47.870;16.058;2023-02-04T05:06:35;97397.41;;;3.82;94.98
49515;BME280;35415;47.870;16.058;2023-02-04T05:09:03;97401.47;;;3.85;94.87
49515;BME280;35415;47.870;16.058;2023-02-04T05:11:30;97440.38;;;4.04;95.71
49515;BME280;35415;47.870;16.058;2023-02-04T05:13:58;97426.53;;;3.77;95.81
49515;BME280;35415;47.870;16.058;2023-02-04T05:16:26;97473.41;;;3.97;96.96
49515;BME280;35415;47.870;16.058;2023-02-04T05:18:53;97498.84;;;3.92;96.85
49515;BME280;35415;47.870;16.058;2023-02-04T05:21:21;97502.00;;;3.83;96.21
49515;BME280;35415;47.870;16.058;2023-02-04T05:23:48;97518.34;;;3.86;95.61
49515;BME280;35415;47.870;16.058;2023-02-04T05:26:17;97544.56;;;3.83;95.67
49515;BME280;35415;47.870;16.058;2023-02-04T05:28:44;97524.91;;;3.59;94.89
49515;BME280;35415;47.870;16.058;2023-02-04T05:31:11;97577.59;;;3.75;92.91
49515;BME280;35415;47.870;16.058;2023-02-04T05:33:40;97578.25;;;3.71;91.00
49515;BME280;35415;47.870;16.058;2023-02-04T05:36:07;97614.03;;;3.68;90.69
49515;BME280;35415;47.870;16.058;2023-02-04T05:38:34;97575.00;;;3.37;90.71
49515;BME280;35415;47.870;16.058;2023-02-04T05:41:01;97646.06;;;3.55;90.23
49515;BME280;35415;47.870;16.058;2023-02-04T05:43:30;97646.91;;;3.49;89.62
49515;BME280;35415;47.870;16.058;2023-02-04T05:45:57;97630.69;;;3.19;88.20
49515;BME280;35415;47.870;16.058;2023-02-04T05:48:24;97668.88;;;3.38;87.14
49515;BME280;35415;47.870;16.058;2023-02-04T05:50:53;97694.03;;;3.28;86.19
49515;BME280;35415;47.870;16.058;2023-02-04T05:53:20;97667.28;;;3.23;85.61
49515;BME280;35415;47.870;16.058;2023-02-04T05:55:47;97715.34;;;3.15;84.57
49515;BME280;35415;47.870;16.058;2023-02-04T05:58:14;97729.69;;;3.08;85.29
49515;BME280;35415;47.870;16.058;2023-02-04T06:00:44;97686.66;;;2.72;85.57
49515;BME280;35415;47.870;16.058;2023-02-04T06:03:11;97693.16;;;2.83;85.53
49515;BME280;35415;47.870;16.058;2023-02-04T06:05:39;97686.63;;;2.66;85.88
49515;BME280;35415;47.870;16.058;2023-02-04T06:08:07;97686.69;;;2.53;86.34
49515;BME280;35415;47.870;16.058;2023-02-04T06:10:35;97756.69;;;2.85;88.18
49515;BME280;35415;47.870;16.058;2023-02-04T06:13:02;97772.03;;;2.83;88.85
49515;BME280;35415;47.870;16.058;2023-02-04T06:15:30;97738.75;;;2.54;87.66
49515;BME280;35415;47.870;16.058;2023-02-04T06:17:57;97792.47;;;2.82;87.29
49515;BME280;35415;47.870;16.058;2023-02-04T06:20:24;97814.13;;;2.79;86.65
49515;BME280;35415;47.870;16.058;2023-02-04T06:22:51;97808.81;;;2.79;88.09
49515;BME280;35415;47.870;16.058;2023-02-04T06:25:20;97817.81;;;2.71;87.16
49515;BME280;35415;47.870;16.058;2023-02-04T06:27:48;97800.66;;;2.54;88.88
49515;BME280;35415;47.870;16.058;2023-02-04T06:30:18;97846.44;;;2.76;87.83
49515;BME280;35415;47.870;16.058;2023-02-04T06:32:45;97870.13;;;2.78;87.44
49515;BME280;35415;47.870;16.058;2023-02-04T06:35:14;97781.41;;;2.19;87.48
49515;BME280;35415;47.870;16.058;2023-02-04T06:37:42;97835.19;;;2.54;87.19
49515;BME280;35415;47.870;16.058;2023-02-04T06:40:11;97834.75;;;2.44;86.04
49515;BME280;35415;47.870;16.058;2023-02-04T06:42:40;97820.41;;;2.19;86.31
49515;BME280;35415;47.870;16.058;2023-02-04T06:45:08;97800.00;;;2.26;85.35
49515;BME280;35415;47.870;16.058;2023-02-04T06:47:36;97869.09;;;2.59;82.45
49515;BME280;35415;47.870;16.058;2023-02-04T06:50:03;97879.06;;;2.44;83.46
49515;BME280;35415;47.870;16.058;2023-02-04T06:52:33;97897.06;;;2.55;80.34
49515;BME280;35415;47.870;16.058;2023-02-04T06:55:01;97879.72;;;2.52;81.06
49515;BME280;35415;47.870;16.058;2023-02-04T06:57:29;97900.09;;;2.52;80.25
49515;BME280;35415;47.870;16.058;2023-02-04T06:59:58;97884.78;;;2.47;81.24
49515;BME280;35415;47.870;16.058;2023-02-04T07:02:25;97901.31;;;2.42;80.23
49515;BME280;35415;47.870;16.058;2023-02-04T07:04:52;97900.53;;;2.55;79.07
49515;BME280;35415;47.870;16.058;2023-02-04T07:07:19;97886.81;;;2.52;79.98
49515;BME280;35415;47.870;16.058;2023-02-04T07:09:46;97913.78;;;2.49;80.99
49515;BME280;35415;47.870;16.058;2023-02-04T07:12:13;97906.25;;;2.52;80.47
49515;BME280;35415;47.870;16.058;2023-02-04T07:14:40;97924.41;;;2.49;80.86
49515;BME280;35415;47.870;16.058;2023-02-04T07:17:09;97900.66;;;2.21;80.92
49515;BME280;35415;47.870;16.058;2023-02-04T07:19:36;97954.41;;;2.42;77.19
49515;BME280;35415;47.870;16.058;2023-02-04T07:22:04;97965.78;;;2.30;77.77
49515;BME280;35415;47.870;16.058;2023-02-04T07:24:31;97988.94;;;2.42;78.18
49515;BME280;35415;47.870;16.058;2023-02-04T07:26:58;98001.78;;;2.39;76.14
49515;BME280;35415;47.870;16.058;2023-02-04T07:29:25;98012.00;;;2.42;77.59
49515;BME280;35415;47.870;16.058;2023-02-04T07:31:53;97998.28;;;2.32;76.61
49515;BME280;35415;47.870;16.058;2023-02-04T07:34:21;97981.09;;;2.21;76.18
49515;BME280;35415;47.870;16.058;2023-02-04T07:36:49;97998.53;;;2.44;75.33
49515;BME280;35415;47.870;16.058;2023-02-04T07:39:18;97974.22;;;2.40;75.72
49515;BME280;35415;47.870;16.058;2023-02-04T07:41:45;98003.44;;;2.40;76.40
49515;BME280;35415;47.870;16.058;2023-02-04T07:44:12;98036.06;;;2.34;77.07
49515;BME280;35415;47.870;16.058;2023-02-04T07:46:39;98013.44;;;2.38;75.51
49515;BME280;35415;47.870;16.058;2023-02-04T07:49:06;98056.72;;;2.38;75.66
49515;BME280;35415;47.870;16.058;2023-02-04T07:51:35;98060.59;;;2.36;75.22
49515;BME280;35415;47.870;16.058;2023-02-04T07:54:02;98023.59;;;2.34;76.04
49515;BME280;35415;47.870;16.058;2023-02-04T07:56:29;98049.94;;;2.29;75.55
49515;BME280;35415;47.870;16.058;2023-02-04T07:58:56;98077.69;;;2.27;75.70
49515;BME280;35415;47.870;16.058;2023-02-04T08:01:23;98097.72;;;2.29;73.36
49515;BME280;35415;47.870;16.058;2023-02-04T08:03:50;98104.03;;;2.28;73.46
49515;BME280;35415;47.870;16.058;2023-02-04T08:06:16;98089.72;;;2.23;72.24
49515;BME280;35415;47.870;16.058;2023-02-04T08:08:45;98091.88;;;2.13;72.42
49515;BME280;35415;47.870;16.058;2023-02-04T08:11:12;98112.34;;;2.19;72.19
49515;BME280;35415;47.870;16.058;2023-02-04T08:13:39;98115.38;;;2.16;71.15
49515;BME280;35415;47.870;16.058;2023-02-04T08:16:06;98125.56;;;2.12;70.92
49515;BME280;35415;47.870;16.058;2023-02-04T08:18:33;98115.91;;;2.04;71.47
49515;BME280;35415;47.870;16.058;2023-02-04T08:21:01;98162.91;;;2.10;70.25
49515;BME280;35415;47.870;16.058;2023-02-04T08:23:30;98166.81;;;2.15;71.66
49515;BME280;35415;47.870;16.058;2023-02-04T08:25:59;98148.19;;;2.08;71.90
49515;BME280;35415;47.870;16.058;2023-02-04T08:28:26;98163.59;;;1.98;72.13
49515;BME280;35415;47.870;16.058;2023-02-04T08:30:53;98192.41;;;2.01;71.76
49515;BME280;35415;47.870;16.058;2023-02-04T08:33:20;98167.06;;;1.98;73.60
49515;BME280;35415;47.870;16.058;2023-02-04T08:35:48;98190.97;;;1.98;74.55
49515;BME280;35415;47.870;16.058;2023-02-04T08:38:16;98197.09;;;1.99;74.72
49515;BME280;35415;47.870;16.058;2023-02-04T08:40:43;98218.94;;;2.01;75.69
49515;BME280;35415;47.870;16.058;2023-02-04T08:43:12;98244.84;;;1.99;76.15
49515;BME280;35415;47.870;16.058;2023-02-04T08:45:39;98234.63;;;1.96;76.94
49515;BME280;35415;47.870;16.058;2023-02-04T08:48:06;98275.00;;;1.91;77.55
49515;BME280;35415;47.870;16.058;2023-02-04T08:50:34;98308.03;;;1.89;78.55
49515;BME280;35415;47.870;16.058;2023-02-04T08:53:01;98322.50;;;1.86;79.36
49515;BME280;35415;47.870;16.058;2023-02-04T08:55:28;98358.97;;;1.84;80.00
49515;BME280;35415;47.870;16.058;2023-02-04T08:57:56;98337.75;;;1.84;81.71
49515;BME280;35415;47.870;16.058;2023-02-04T09:00:29;98345.06;;;1.82;83.12
49515;BME280;35415;47.870;16.058;2023-02-04T09:02:56;98394.38;;;1.76;84.16
49515;BME280;35415;47.870;16.058;2023-02-04T09:05:24;98347.09;;;1.50;85.07
49515;BME280;35415;47.870;16.058;2023-02-04T09:07:51;98409.72;;;1.66;85.68
49515;BME280;35415;47.870;16.058;2023-02-04T09:10:27;98412.19;;;1.68;85.98
49515;BME280;35415;47.870;16.058;2023-02-04T09:12:54;98345.47;;;1.35;82.49
49515;BME280;35415;47.870;16.058;2023-02-04T09:15:22;98402.78;;;1.65;82.52
49515;BME280;35415;47.870;16.058;2023-02-04T09:17:51;98388.34;;;1.53;82.46
49515;BME280;35415;47.870;16.058;2023-02-04T09:20:29;98373.97;;;1.33;81.12
49515;BME280;35415;47.870;16.058;2023-02-04T09:22:56;98415.31;;;1.57;79.55
49515;BME280;35415;47.870;16.058;2023-02-04T09:25:23;98414.38;;;1.49;78.51
49515;BME280;35415;47.870;16.058;2023-02-04T09:27:51;98418.81;;;1.57;78.45
49515;BME280;35415;47.870;16.058;2023-02-04T09:30:18;98411.84;;;1.56;77.75
49515;BME280;35415;47.870;16.058;2023-02-04T09:32:45;98402.31;;;1.47;77.17
49515;BME280;35415;47.870;16.058;2023-02-04T09:35:14;98421.81;;;1.54;78.22
49515;BME280;35415;47.870;16.058;2023-02-04T09:37:41;98436.09;;;1.53;78.50
49515;BME280;35415;47.870;16.058;2023-02-04T09:40:12;98437.09;;;1.52;78.40
49515;BME280;35415;47.870;16.058;2023-02-04T09:42:39;98405.13;;;1.31;77.75
49515;BME280;35415;47.870;16.058;2023-02-04T09:45:09;98444.03;;;1.53;78.07
49515;BME280;35415;47.870;16.058;2023-02-04T09:47:40;98430.13;;;1.51;77.69
49515;BME280;35415;47.870;16.058;2023-02-04T09:50:08;98429.59;;;1.56;77.64
49515;BME280;35415;47.870;16.058;2023-02-04T09:52:44;98445.69;;;1.54;75.83
49515;BME280;35415;47.870;16.058;2023-02-04T09:55:14;98457.47;;;1.52;76.23
49515;BME280;35415;47.870;16.058;2023-02-04T09:57:43;98440.91;;;1.49;75.21
49515;BME280;35415;47.870;16.058;2023-02-04T10:00:15;98438.06;;;1.51;73.56
49515;BME280;35415;47.870;16.058;2023-02-04T10:02:45;98443.50;;;1.58;73.74
49515;BME280;35415;47.870;16.058;2023-02-04T10:05:13;98447.16;;;1.57;74.55
49515;BME280;35415;47.870;16.058;2023-02-04T10:07:43;98453.09;;;1.59;74.02
49515;BME280;35415;47.870;16.058;2023-02-04T10:10:15;98396.09;;;1.25;73.22
49515;BME280;35415;47.870;16.058;2023-02-04T10:12:47;98431.06;;;1.58;72.74
49515;BME280;35415;47.870;16.058;2023-02-04T10:15:17;98433.72;;;1.58;72.92
49515;BME280;35415;47.870;16.058;2023-02-04T10:17:46;98388.72;;;1.35;72.47
49515;BME280;35415;47.870;16.058;2023-02-04T10:20:15;98426.03;;;1.78;71.83
49515;BME280;35415;47.870;16.058;2023-02-04T10:22:45;98460.78;;;1.83;71.50
49515;BME280;35415;47.870;16.058;2023-02-04T10:25:14;98390.00;;;1.54;72.28
49515;BME280;35415;47.870;16.058;2023-02-04T10:27:50;98376.09;;;1.37;71.86
49515;BME280;35415;47.870;16.058;2023-02-04T10:30:19;98443.22;;;1.82;72.80
49515;BME280;35415;47.870;16.058;2023-02-04T10:32:49;98478.09;;;1.94;73.12
49515;BME280;35415;47.870;16.058;2023-02-04T10:35:18;98435.38;;;1.74;72.93
49515;BME280;35415;47.870;16.058;2023-02-04T10:38:03;98437.91;;;1.67;74.01
49515;BME280;35415;47.870;16.058;2023-02-04T10:40:33;98487.69;;;1.95;74.47
49515;BME280;35415;47.870;16.058;2023-02-04T10:43:07;98499.50;;;1.92;75.16
49515;BME280;35415;47.870;16.058;2023-02-04T10:45:36;98475.41;;;1.79;75.26
49515;BME280;35415;47.870;16.058;2023-02-04T10:48:04;98513.31;;;1.88;74.92
49515;BME280;35415;47.870;16.058;2023-02-04T10:50:32;98519.13;;;1.83;75.42
49515;BME280;35415;47.870;16.058;2023-02-04T10:53:01;98529.84;;;1.75;76.28
49515;BME280;35415;47.870;16.058;2023-02-04T10:55:46;98492.94;;;1.50;76.00
49515;BME280;35415;47.870;16.058;2023-02-04T10:58:19;98451.66;;;1.33;75.76
49515;BME280;35415;47.870;16.058;2023-02-04T11:00:52;98520.50;;;1.64;75.20
49515;BME280;35415;47.870;16.058;2023-02-04T11:03:22;98425.97;;;1.19;75.05
49515;BME280;35415;47.870;16.058;2023-02-04T11:05:56;98489.63;;;1.48;75.36
49515;BME280;35415;47.870;16.058;2023-02-04T11:08:28;98535.50;;;1.72;74.81
49515;BME280;35415;47.870;16.058;2023-02-04T11:10:57;98528.38;;;1.72;74.50
49515;BME280;35415;47.870;16.058;2023-02-04T11:13:27;98527.09;;;1.68;74.18
49515;BME280;35415;47.870;16.058;2023-02-04T11:16:11;98515.81;;;1.66;74.07
49515;BME280;35415;47.870;16.058;2023-02-04T11:18:47;98526.63;;;1.65;73.50
49515;BME280;35415;47.870;16.058;2023-02-04T11:21:23;98529.53;;;1.55;73.71
49515;BME280;35415;47.870;16.058;2023-02-04T11:24:24;98533.88;;;1.71;74.28
49515;BME280;35415;47.870;16.058;2023-02-04T11:27:05;98534.88;;;1.70;73.83
49515;BME280;35415;47.870;16.058;2023-02-04T11:29:34;98522.28;;;1.49;72.74
49515;BME280;35415;47.870;16.058;2023-02-04T11:32:04;98519.28;;;1.67;73.18
49515;BME280;35415;47.870;16.058;2023-02-04T11:34:48;98557.84;;;1.77;72.03
49515;BME280;35415;47.870;16.058;2023-02-04T11:37:26;98551.28;;;1.88;72.17
49515;BME280;35415;47.870;16.058;2023-02-04T11:39:57;98549.41;;;1.74;72.29
49515;BME280;35415;47.870;16.058;2023-02-04T11:42:30;98531.84;;;1.73;73.44
49515;BME280;35415;47.870;16.058;2023-02-04T11:45:00;98551.47;;;1.87;72.93
49515;BME280;35415;47.870;16.058;2023-02-04T11:47:38;98519.88;;;1.77;70.76
49515;BME280;35415;47.870;16.058;2023-02-04T11:50:13;98516.41;;;1.76;70.20
49515;BME280;35415;47.870;16.058;2023-02-04T11:52:40;98517.41;;;1.75;70.61
49515;BME280;35415;47.870;16.058;2023-02-04T11:55:18;98489.59;;;1.71;70.66
49515;BME280;35415;47.870;16.058;2023-02-04T11:57:50;98521.72;;;1.91;69.67
49515;BME280;35415;47.870;16.058;2023-02-04T12:00:19;98540.94;;;1.93;70.39
49515;BME280;35415;47.870;16.058;2023-02-04T12:02:49;98545.88;;;1.96;70.38
49515;BME280;35415;47.870;16.058;2023-02-04T12:05:18;98566.66;;;1.93;70.42
49515;BME280;35415;47.870;16.058;2023-02-04T12:07:46;98566.56;;;2.01;68.48
49515;BME280;35415;47.870;16.058;2023-02-04T12:10:22;98578.00;;;2.01;67.52
49515;BME280;35415;47.870;16.058;2023-02-04T12:12:53;98502.00;;;1.56;68.80
49515;BME280;35415;47.870;16.058;2023-02-04T12:15:24;98561.97;;;1.95;68.22
49515;BME280;35415;47.870;16.058;2023-02-04T12:18:02;98573.53;;;2.02;68.70
49515;BME280;35415;47.870;16.058;2023-02-04T12:20:29;98563.19;;;2.07;67.70
49515;BME280;35415;47.870;16.058;2023-02-04T12:22:56;98559.91;;;2.05;65.66
49515;BME280;35415;47.870;16.058;2023-02-04T12:25:25;98577.09;;;2.09;66.47
49515;BME280;35415;47.870;16.058;2023-02-04T12:27:56;98528.28;;;1.80;66.08
49515;BME280;35415;47.870;16.058;2023-02-04T12:30:25;98570.06;;;2.16;65.37
49515;BME280;35415;47.870;16.058;2023-02-04T12:32:54;98565.75;;;2.15;65.14
49515;BME280;35415;47.870;16.058;2023-02-04T12:35:22;98563.75;;;2.17;64.65
49515;BME280;35415;47.870;16.058;2023-02-04T12:37:52;98552.94;;;2.04;63.88
49515;BME280;35415;47.870;16.058;2023-02-04T12:40:20;98537.94;;;2.11;62.34
49515;BME280;35415;47.870;16.058;2023-02-04T12:42:50;98572.53;;;2.18;62.99
49515;BME280;35415;47.870;16.058;2023-02-04T12:45:19;98542.66;;;2.01;64.31
49515;BME280;35415;47.870;16.058;2023-02-04T12:47:49;98580.84;;;2.15;63.32
49515;BME280;35415;47.870;16.058;2023-02-04T12:50:17;98529.66;;;1.76;62.97
49515;BME280;35415;47.870;16.058;2023-02-04T12:52:49;98569.16;;;2.09;63.20
49515;BME280;35415;47.870;16.058;2023-02-04T12:55:16;98578.94;;;2.08;63.92
49515;BME280;35415;47.870;16.058;2023-02-04T12:57:44;98562.66;;;2.11;63.68
49515;BME280;35415;47.870;16.058;2023-02-04T13:00:19;98548.34;;;1.98;62.29
49515;BME280;35415;47.870;16.058;2023-02-04T13:02:48;98565.47;;;2.10;59.50
49515;BME280;35415;47.870;16.058;2023-02-04T13:05:16;98585.06;;;2.09;59.03
49515;BME280;35415;47.870;16.058;2023-02-04T13:07:43;98537.53;;;1.85;59.61